Time;durP1;ratioP1;P1;durP2;ratioP2;P2;SDS_P1;SDS_P2;PMS_P1;PMS_P2;Temp;Humidity;BMP_temperature;BMP_pressure;BME280_temperature;BME280_humidity;BME280_pressure;Samples;Min_cycle;Max_cycle;Signal;HPM_P1;HPM_P2
2022/12/06 00:00:19;;;;;;;27.95;17.00;;;;;;;3.25;69.16;101360.16;677839;29;1128;-79
2022/12/06 00:00:39;;;;;;;27.23;17.30;;;;;;;3.24;69.38;101351.50;679775;29;1392;-79
2022/12/06 00:01:09;;;;;;;26.47;17.57;;;;;;;3.23;69.48;101357.47;678029;29;1160;-80
2022/12/06 00:01:35;;;;;;;27.20;17.65;;;;;;;3.22;69.53;101345.34;685438;28;1072;-79
2022/12/06 00:01:56;;;;;;;26.13;17.10;;;;;;;3.20;69.39;101353.78;685534;28;836;-79
2022/12/06 00:02:16;;;;;;;26.25;17.02;;;;;;;3.21;69.22;101351.31;675000;29;1071;-79
2022/12/06 00:02:37;;;;;;;27.57;17.67;;;;;;;3.24;69.49;101356.66;677367;29;1530;-79
2022/12/06 00:02:58;;;;;;;28.65;17.55;;;;;;;3.21;69.34;101353.88;677699;29;854;-80
2022/12/06 00:03:18;;;;;;;26.95;16.63;;;;;;;3.27;69.60;101358.56;674973;29;1217;-80
2022/12/06 00:03:41;;;;;;;27.45;16.17;;;;;;;3.23;69.25;101348.81;674999;29;956;-80
2022/12/06 00:04:05;;;;;;;28.10;16.60;;;;;;;3.22;69.36;101355.69;673510;29;895;-80
2022/12/06 00:04:26;;;;;;;28.95;17.23;;;;;;;3.22;69.12;101349.59;672346;29;1226;-79
2022/12/06 00:04:46;;;;;;;26.60;16.80;;;;;;;3.23;69.33;101354.88;672531;29;920;-79
2022/12/06 00:05:07;;;;;;;27.83;17.20;;;;;;;3.19;69.24;101342.56;673487;29;974;-80
2022/12/06 00:05:29;;;;;;;28.00;17.42;;;;;;;3.21;69.15;101347.81;674907;29;1138;-79
2022/12/06 00:05:50;;;;;;;28.52;17.42;;;;;;;3.18;69.24;101340.75;677245;29;824;-80
2022/12/06 00:06:17;;;;;;;28.08;17.23;;;;;;;3.22;69.51;101347.94;680665;29;1320;-80
2022/12/06 00:06:41;;;;;;;27.35;17.27;;;;;;;3.22;69.13;101350.50;678754;29;1097;-79
2022/12/06 00:07:01;;;;;;;26.77;17.25;;;;;;;3.21;69.36;101346.16;677448;29;1868;-79
2022/12/06 00:07:22;;;;;;;26.40;17.02;;;;;;;3.26;69.47;101360.22;675094;29;1064;-79
2022/12/06 00:07:43;;;;;;;26.43;16.97;;;;;;;3.21;69.38;101345.25;672371;29;1011;-79
2022/12/06 00:08:03;;;;;;;28.70;16.90;;;;;;;3.24;69.12;101346.34;669950;29;1184;-79
2022/12/06 00:08:24;;;;;;;26.60;16.15;;;;;;;3.23;69.55;101349.72;672305;29;1403;-79
2022/12/06 00:08:46;;;;;;;27.23;16.23;;;;;;;3.23;69.72;101352.31;675043;29;1141;-80
2022/12/06 00:09:10;;;;;;;24.15;16.33;;;;;;;3.21;69.36;101346.16;674979;29;960;-80
2022/12/06 00:09:31;;;;;;;26.65;16.95;;;;;;;3.24;69.58;101343.75;677410;29;1915;-79
2022/12/06 00:09:52;;;;;;;27.55;17.58;;;;;;;3.27;69.29;101351.69;677686;29;827;-79
2022/12/06 00:10:12;;;;;;;28.15;18.02;;;;;;;3.31;69.18;101357.09;677627;29;1155;-79
2022/12/06 00:10:35;;;;;;;28.93;18.40;;;;;;;3.23;69.45;101349.72;677500;29;1090;-79
2022/12/06 00:11:03;;;;;;;30.25;18.38;;;;;;;3.26;69.26;101352.50;678740;29;876;-79
2022/12/06 00:11:27;;;;;;;29.63;18.17;;;;;;;3.26;69.37;101349.91;681726;29;1087;-79
2022/12/06 00:11:48;;;;;;;27.25;17.13;;;;;;;3.26;69.09;101344.75;682925;29;883;-79
2022/12/06 00:12:08;;;;;;;25.33;16.65;;;;;;;3.23;69.30;101352.31;680180;29;1094;-80
2022/12/06 00:12:29;;;;;;;25.42;16.83;;;;;;;3.33;69.43;101355.50;682172;29;1086;-79
2022/12/06 00:12:50;;;;;;;26.40;17.10;;;;;;;3.26;69.29;101352.50;677648;29;1320;-79
2022/12/06 00:13:10;;;;;;;26.42;16.70;;;;;;;3.30;69.14;101357.88;674363;29;1283;-79
2022/12/06 00:13:31;;;;;;;27.70;16.97;;;;;;;3.28;69.28;101350.03;669630;29;1107;-79
2022/12/06 00:14:00;;;;;;;27.40;16.98;;;;;;;3.26;69.28;101355.06;672403;29;850;-79
2022/12/06 00:14:21;;;;;;;27.35;17.02;;;;;;;3.25;69.47;101345.56;672294;29;997;-79
2022/12/06 00:14:42;;;;;;;26.20;16.38;;;;;;;3.24;69.24;101350.63;672295;29;1860;-80
2022/12/06 00:15:03;;;;;;;25.35;16.30;;;;;;;3.28;69.15;101352.59;674957;29;1128;-80
2022/12/06 00:15:23;;;;;;;26.48;16.45;;;;;;;3.23;69.07;101349.72;675051;29;976;-79
2022/12/06 00:15:44;;;;;;;28.70;17.60;;;;;;;3.24;69.15;101346.34;675433;29;1134;-79
2022/12/06 00:16:07;;;;;;;29.90;17.67;;;;;;;3.26;69.32;101349.91;675000;29;1137;-79
2022/12/06 00:16:29;;;;;;;31.05;17.70;;;;;;;3.19;69.41;101337.38;675612;29;1223;-79
2022/12/06 00:16:50;;;;;;;32.15;17.55;;;;;;;3.23;69.56;101344.56;674908;29;890;-80
2022/12/06 00:17:11;;;;;;;30.33;17.63;;;;;;;3.23;69.48;101344.56;675962;29;1002;-79
2022/12/06 00:17:31;;;;;;;30.30;17.92;;;;;;;3.24;69.06;101342.88;674751;29;1460;-79
2022/12/06 00:17:52;;;;;;;30.05;18.67;;;;;;;3.24;69.16;101341.19;675123;29;846;-79
2022/12/06 00:18:13;;;;;;;30.20;19.00;;;;;;;3.24;69.29;101343.75;675020;29;1102;-79
2022/12/06 00:18:36;;;;;;;29.92;19.10;;;;;;;3.20;69.12;101335.72;674794;29;1186;-80
2022/12/06 00:18:57;;;;;;;28.17;17.67;;;;;;;3.22;69.29;101339.28;675609;29;1172;-80
2022/12/06 00:19:20;;;;;;;27.05;17.40;;;;;;;3.23;69.49;101343.66;678254;29;923;-80
2022/12/06 00:19:41;;;;;;;26.73;16.90;;;;;;;3.21;69.54;101338.41;678420;29;1165;-80
2022/12/06 00:20:01;;;;;;;26.73;17.00;;;;;;;3.21;69.49;101329.75;677639;29;973;-79
2022/12/06 00:20:22;;;;;;;26.58;17.20;;;;;;;3.25;69.30;101348.13;676026;29;1521;-79
2022/12/06 00:20:42;;;;;;;26.80;17.92;;;;;;;3.23;69.31;101341.06;677552;29;1052;-79
2022/12/06 00:21:09;;;;;;;25.10;17.60;;;;;;;3.30;69.05;101352.72;674445;29;1085;-79
2022/12/06 00:21:34;;;;;;;26.35;16.90;;;;;;;3.24;69.51;101336.03;672256;29;1994;-79
2022/12/06 00:21:55;;;;;;;28.30;16.88;;;;;;;3.20;69.47;101334.06;674134;29;833;-79
2022/12/06 00:22:15;;;;;;;28.77;17.83;;;;;;;3.21;69.09;101338.41;672337;29;1210;-79
2022/12/06 00:22:36;;;;;;;27.23;18.00;;;;;;;3.23;69.58;101339.41;673976;29;1018;-79
2022/12/06 00:22:56;;;;;;;26.97;17.90;;;;;;;3.24;69.49;101341.19;676714;29;844;-79
2022/12/06 00:23:17;;;;;;;27.20;17.25;;;;;;;3.28;69.15;101343.19;678343;29;1022;-79
2022/12/06 00:23:40;;;;;;;28.02;17.75;;;;;;;3.21;69.45;101333.25;680017;29;1053;-79
2022/12/06 00:24:07;;;;;;;29.05;18.27;;;;;;;3.25;69.07;101342.97;677715;29;1976;-79
2022/12/06 00:24:28;;;;;;;30.08;18.45;;;;;;;3.30;69.42;101350.13;679942;29;1132;-79
2022/12/06 00:24:48;;;;;;;29.88;18.13;;;;;;;3.28;69.20;101343.19;677572;29;1141;-79
2022/12/06 00:25:09;;;;;;;29.47;18.50;;;;;;;3.24;69.12;101335.16;674970;29;1010;-79
2022/12/06 00:25:30;;;;;;;28.77;18.48;;;;;;;3.25;69.12;101332.66;674904;29;1138;-79
2022/12/06 00:25:50;;;;;;;28.42;18.60;;;;;;;3.26;69.43;101347.34;678596;29;895;-79
2022/12/06 00:26:12;;;;;;;27.97;18.10;;;;;;;3.32;68.85;101353.72;680196;29;1149;-79
2022/12/06 00:26:40;;;;;;;28.10;18.00;;;;;;;3.23;69.05;101339.41;680067;29;1125;-79
2022/12/06 00:27:01;;;;;;;29.13;17.80;;;;;;;3.25;69.13;101336.94;680161;29;975;-80
2022/12/06 00:27:21;;;;;;;29.37;17.97;;;;;;;3.21;69.33;101330.69;680298;29;800;-79
2022/12/06 00:27:42;;;;;;;28.58;18.30;;;;;;;3.20;69.45;101326.31;677373;29;1181;-79
2022/12/06 00:28:03;;;;;;;27.13;18.08;;;;;;;3.24;69.44;101336.03;677633;29;1114;-79
2022/12/06 00:28:23;;;;;;;26.17;17.37;;;;;;;3.28;69.55;101337.13;677381;29;1085;-79
2022/12/06 00:28:44;;;;;;;24.90;16.77;;;;;;;3.27;69.20;101336.22;677450;29;983;-79
2022/12/06 00:29:07;;;;;;;24.85;16.42;;;;;;;3.27;69.07;101338.78;680206;29;1109;-79
2022/12/06 00:29:28;;;;;;;25.20;16.75;;;;;;;3.30;69.31;101330.38;682626;29;1974;-79
2022/12/06 00:29:48;;;;;;;25.23;17.00;;;;;;;3.32;69.36;101336.56;682824;29;887;-79
2022/12/06 00:30:09;;;;;;;25.35;16.83;;;;;;;3.27;69.50;101335.34;682043;28;1238;-79
2022/12/06 00:30:35;;;;;;;25.23;16.20;;;;;;;3.25;69.43;101332.66;680231;29;824;-79
2022/12/06 00:30:57;;;;;;;25.35;16.45;;;;;;;3.31;68.95;101331.28;682896;29;851;-78
2022/12/06 00:31:20;;;;;;;25.08;17.15;;;;;;;3.34;69.26;101339.22;682725;29;1203;-79
2022/12/06 00:31:43;;;;;;;26.08;17.23;;;;;;;3.34;68.93;101346.94;680075;29;1210;-79
2022/12/06 00:32:04;;;;;;;27.95;17.13;;;;;;;3.31;68.99;101336.44;680257;29;1006;-79
2022/12/06 00:32:24;;;;;;;28.05;17.25;;;;;;;3.36;69.15;101340.25;677433;29;1247;-79
2022/12/06 00:32:45;;;;;;;28.47;17.73;;;;;;;3.33;69.16;101340.91;678701;29;945;-79
2022/12/06 00:33:05;;;;;;;26.90;17.30;;;;;;;3.34;68.96;101339.22;677552;29;1013;-79
2022/12/06 00:33:27;;;;;;;26.95;17.20;;;;;;;3.33;68.82;101334.84;678110;29;1282;-79
2022/12/06 00:33:48;;;;;;;27.63;17.45;;;;;;;3.32;68.89;101333.06;677582;29;772;-79
2022/12/06 00:34:09;;;;;;;28.77;17.80;;;;;;;3.36;69.21;101345.41;678072;29;998;-79
2022/12/06 00:34:29;;;;;;;28.63;17.47;;;;;;;3.33;68.98;101340.00;679676;29;1198;-79
2022/12/06 00:34:50;;;;;;;27.65;17.00;;;;;;;3.29;69.26;101336.34;677976;29;1227;-79
2022/12/06 00:35:10;;;;;;;28.75;17.30;;;;;;;3.31;69.04;101341.59;677589;29;1221;-79
2022/12/06 00:35:31;;;;;;;28.67;17.60;;;;;;;3.30;69.45;101344.97;677806;29;1232;-79
2022/12/06 00:35:59;;;;;;;27.90;17.00;;;;;;;3.32;69.04;101339.13;680244;29;819;-79
2022/12/06 00:36:28;;;;;;;24.70;16.10;;;;;;;3.27;69.42;101338.78;677488;29;1090;-79
2022/12/06 00:36:48;;;;;;;27.15;16.90;;;;;;;3.26;69.54;101326.69;677472;29;899;-79
2022/12/06 00:37:09;;;;;;;27.07;16.87;;;;;;;3.27;69.24;101336.22;674920;29;1110;-79
2022/12/06 00:37:29;;;;;;;28.10;17.67;;;;;;;3.27;69.05;101338.78;674895;29;1093;-79
2022/12/06 00:37:50;;;;;;;27.20;17.05;;;;;;;3.30;69.45;101337.25;672372;29;1131;-79
2022/12/06 00:38:10;;;;;;;26.93;16.60;;;;;;;3.31;69.34;101336.44;674853;29;963;-79
2022/12/06 00:38:31;;;;;;;26.58;16.40;;;;;;;3.33;69.69;101345.16;674914;29;1062;-79
2022/12/06 00:38:52;;;;;;;29.55;16.60;;;;;;;3.35;69.01;101338.41;677672;29;853;-79
2022/12/06 00:39:16;;;;;;;30.70;17.08;;;;;;;3.34;69.21;101334.97;677472;29;1147;-79
2022/12/06 00:39:36;;;;;;;28.02;16.52;;;;;;;3.36;68.95;101340.25;674758;29;1093;-79
2022/12/06 00:39:57;;;;;;;25.90;16.20;;;;;;;3.36;69.35;101337.66;675836;29;800;-79
2022/12/06 00:40:17;;;;;;;27.10;16.50;;;;;;;3.32;69.02;101333.97;675612;29;1147;-79
2022/12/06 00:40:38;;;;;;;29.38;16.77;;;;;;;3.32;69.39;101328.81;674767;29;1445;-79
2022/12/06 00:41:00;;;;;;;29.73;17.27;;;;;;;3.36;69.03;101335.06;675520;29;1172;-79
2022/12/06 00:41:22;;;;;;;30.42;17.63;;;;;;;3.38;68.97;101339.53;675348;29;1075;-79
2022/12/06 00:41:43;;;;;;;27.50;17.25;;;;;;;3.36;69.22;101341.13;677475;29;1047;-79
2022/12/06 00:42:04;;;;;;;27.15;16.90;;;;;;;3.34;69.12;101331.47;675579;29;1170;-79
2022/12/06 00:42:25;;;;;;;25.70;16.52;;;;;;;3.36;68.72;101329.91;678275;29;1083;-79
2022/12/06 00:42:45;;;;;;;26.27;16.60;;;;;;;3.39;69.01;101337.84;677550;29;1091;-79
2022/12/06 00:43:06;;;;;;;29.17;17.30;;;;;;;3.40;69.28;101344.78;675305;29;993;-79
2022/12/06 00:43:26;;;;;;;29.30;17.13;;;;;;;3.36;69.24;101330.78;674753;29;1187;-79
2022/12/06 00:43:48;;;;;;;29.30;16.97;;;;;;;3.38;69.30;101338.63;675330;29;745;-79
2022/12/06 00:44:10;;;;;;;27.20;16.10;;;;;;;3.35;69.39;101335.84;677664;29;1002;-79
2022/12/06 00:44:30;;;;;;;27.40;16.23;;;;;;;3.31;69.02;101323.53;678085;29;1081;-79
2022/12/06 00:44:51;;;;;;;27.73;16.55;;;;;;;3.36;69.22;101335.06;678162;29;832;-79
2022/12/06 00:45:11;;;;;;;27.70;16.97;;;;;;;3.39;69.19;101340.44;678146;29;1056;-79
2022/12/06 00:45:32;;;;;;;28.00;17.10;;;;;;;3.40;69.29;101337.97;680060;29;1127;-79
2022/12/06 00:45:53;;;;;;;27.35;17.10;;;;;;;3.35;69.25;101328.09;677535;29;1242;-79
2022/12/06 00:46:16;;;;;;;28.60;17.27;;;;;;;3.45;69.34;101350.25;674731;29;1258;-79
2022/12/06 00:46:38;;;;;;;28.55;17.25;;;;;;;3.34;69.40;101326.31;670173;29;952;-78
2022/12/06 00:46:58;;;;;;;28.38;16.98;;;;;;;3.43;69.37;101347.56;673142;29;845;-78
2022/12/06 00:47:19;;;;;;;25.80;15.97;;;;;;;3.38;69.38;101339.53;674940;29;1024;-79
2022/12/06 00:47:39;;;;;;;24.02;15.48;;;;;;;3.38;68.94;101344.69;673095;29;927;-80
2022/12/06 00:48:00;;;;;;;24.07;16.00;;;;;;;3.36;69.37;101341.13;673037;29;1293;-79
2022/12/06 00:48:21;;;;;;;24.53;16.00;;;;;;;3.37;69.13;101342.91;672804;29;1102;-79
2022/12/06 00:48:43;;;;;;;27.40;16.35;;;;;;;3.36;69.15;101345.41;672625;29;1115;-79
2022/12/06 00:49:05;;;;;;;27.73;15.88;;;;;;;3.43;68.91;101342.41;672337;29;1072;-79
2022/12/06 00:49:25;;;;;;;28.20;16.45;;;;;;;3.42;68.85;101341.53;672927;29;1969;-79
2022/12/06 00:49:46;;;;;;;28.10;16.53;;;;;;;3.41;69.07;101341.41;675567;29;1044;-79
2022/12/06 00:50:07;;;;;;;28.25;16.83;;;;;;;3.45;69.21;101351.16;678515;29;1189;-79
2022/12/06 00:50:28;;;;;;;27.80;16.40;;;;;;;3.39;69.02;101346.47;681226;29;1238;-79
2022/12/06 00:50:49;;;;;;;26.85;16.10;;;;;;;3.38;69.04;101333.47;680730;29;825;-79
2022/12/06 00:51:10;;;;;;;27.20;16.23;;;;;;;3.42;68.97;101348.34;681078;29;1001;-80
2022/12/06 00:51:32;;;;;;;27.52;16.25;;;;;;;3.38;69.30;101338.63;683113;28;1215;-79
2022/12/06 00:51:52;;;;;;;27.30;16.67;;;;;;;3.39;69.31;101341.31;683389;29;812;-80
2022/12/06 00:52:13;;;;;;;27.38;16.70;;;;;;;3.43;68.98;101347.56;683385;29;1101;-79
2022/12/06 00:52:33;;;;;;;26.67;16.63;;;;;;;3.44;68.93;101351.97;680510;29;1153;-79
2022/12/06 00:52:54;;;;;;;26.65;16.33;;;;;;;3.39;68.93;101340.44;678072;29;1305;-79
2022/12/06 00:53:15;;;;;;;25.60;16.30;;;;;;;3.41;69.42;101344.00;678478;29;1124;-79
2022/12/06 00:53:36;;;;;;;25.10;15.90;;;;;;;3.44;68.94;101348.47;677998;29;1243;-79
2022/12/06 00:53:57;;;;;;;26.13;15.60;;;;;;;3.40;69.39;101332.81;675536;29;942;-79
2022/12/06 00:54:18;;;;;;;26.02;15.68;;;;;;;3.41;69.11;101333.69;675752;29;1018;-79
2022/12/06 00:54:38;;;;;;;24.80;15.80;;;;;;;3.43;68.93;101339.81;678359;29;930;-79
2022/12/06 00:54:59;;;;;;;23.30;15.50;;;;;;;3.43;69.29;101347.56;675073;29;1301;-79
2022/12/06 00:55:20;;;;;;;24.52;15.32;;;;;;;3.49;68.89;101349.69;675407;29;1074;-79
2022/12/06 00:55:42;;;;;;;27.40;16.10;;;;;;;3.45;69.03;101337.34;675409;29;1080;-79
2022/12/06 00:56:03;;;;;;;27.30;16.38;;;;;;;3.48;69.32;101346.19;675286;29;1127;-79
2022/12/06 00:56:24;;;;;;;26.75;16.20;;;;;;;3.49;68.94;101331.63;678075;29;1136;-79
2022/12/06 00:56:44;;;;;;;26.77;16.50;;;;;;;3.43;68.87;101334.66;675223;29;1142;-79
2022/12/06 00:57:05;;;;;;;26.58;16.45;;;;;;;3.49;69.23;101340.22;677784;29;1257;-79
2022/12/06 00:57:25;;;;;;;25.70;16.10;;;;;;;3.48;69.02;101343.63;675319;29;1056;-79
2022/12/06 00:57:47;;;;;;;24.60;15.80;;;;;;;3.49;68.93;101334.19;677995;29;838;-79
2022/12/06 00:58:08;;;;;;;26.92;16.35;;;;;;;3.45;69.02;101333.09;672806;29;1853;-78
2022/12/06 00:58:29;;;;;;;28.55;16.48;;;;;;;3.53;69.11;101339.66;672744;29;1232;-78
2022/12/06 00:58:50;;;;;;;29.77;16.65;;;;;;;3.56;68.72;101345.00;672746;29;1108;-78
2022/12/06 00:59:10;;;;;;;30.10;16.58;;;;;;;3.51;68.93;101332.59;675431;29;1287;-78
2022/12/06 00:59:31;;;;;;;29.30;16.83;;;;;;;3.49;69.15;101337.66;677877;29;1141;-79
2022/12/06 00:59:51;;;;;;;27.57;16.77;;;;;;;3.51;68.85;101336.09;678038;29;1076;-79
2022/12/06 01:00:13;;;;;;;26.98;16.67;;;;;;;3.54;68.76;101338.88;678350;29;1037;-78
2022/12/06 01:00:33;;;;;;;26.95;16.83;;;;;;;3.53;69.26;101333.59;680960;28;993;-79
2022/12/06 01:00:54;;;;;;;27.42;16.52;;;;;;;3.54;68.71;101337.94;680766;29;792;-79
2022/12/06 01:01:19;;;;;;;27.73;16.60;;;;;;;3.50;69.09;101326.53;680677;29;968;-78
2022/12/06 01:01:40;;;;;;;28.58;16.58;;;;;;;3.56;68.98;101334.69;681397;29;1076;-78
2022/12/06 01:02:00;;;;;;;28.02;16.73;;;;;;;3.52;68.72;101332.72;680723;29;1130;-79
2022/12/06 01:02:21;;;;;;;24.77;16.20;;;;;;;3.60;68.84;101345.22;677942;29;1238;-79
2022/12/06 01:02:41;;;;;;;24.50;16.45;;;;;;;3.56;68.77;101334.69;677958;29;1089;-78
2022/12/06 01:03:05;;;;;;;24.40;16.37;;;;;;;3.59;68.81;101333.09;675352;29;1141;-78
2022/12/06 01:03:26;;;;;;;27.85;16.55;;;;;;;3.59;68.94;101344.31;675379;29;1074;-79
2022/12/06 01:03:52;;;;;;;26.83;16.57;;;;;;;3.66;69.18;101353.34;675430;29;1068;-79
2022/12/06 01:04:12;;;;;;;25.65;16.60;;;;;;;3.55;68.89;101335.47;672713;29;1014;-78
2022/12/06 01:04:35;;;;;;;26.15;16.60;;;;;;;3.61;68.78;101345.31;672743;29;1115;-78
2022/12/06 01:04:55;;;;;;;27.58;17.27;;;;;;;3.55;69.20;101332.91;675407;29;899;-78
2022/12/06 01:05:19;;;;;;;26.93;16.63;;;;;;;3.63;69.06;101350.59;675313;29;1316;-78
2022/12/06 01:05:41;;;;;;;25.40;16.67;;;;;;;3.64;68.99;101352.38;675257;29;1113;-79
2022/12/06 01:06:08;;;;;;;26.08;16.40;;;;;;;3.58;68.74;101336.47;675299;29;1160;-78
2022/12/06 01:06:31;;;;;;;27.10;16.42;;;;;;;3.56;69.13;101334.69;672611;29;1110;-78
2022/12/06 01:06:52;;;;;;;27.05;16.42;;;;;;;3.61;69.09;101345.31;674396;29;1019;-78
2022/12/06 01:07:13;;;;;;;26.17;16.17;;;;;;;3.59;69.09;101338.25;675430;29;1107;-78
2022/12/06 01:07:33;;;;;;;27.65;16.70;;;;;;;3.59;69.07;101338.25;678556;29;1066;-78
2022/12/06 01:07:54;;;;;;;28.73;16.60;;;;;;;3.61;68.68;101339.28;680651;29;1248;-78
2022/12/06 01:08:17;;;;;;;29.43;16.70;;;;;;;3.58;69.19;101331.31;681201;29;1021;-78
2022/12/06 01:08:39;;;;;;;28.17;16.80;;;;;;;3.61;68.77;101334.09;680646;29;1140;-79
2022/12/06 01:09:06;;;;;;;27.85;16.95;;;;;;;3.62;68.83;101341.06;683308;28;820;-78
2022/12/06 01:09:29;;;;;;;27.65;17.15;;;;;;;3.61;69.19;101336.69;680404;29;1994;-78
2022/12/06 01:09:50;;;;;;;26.95;17.13;;;;;;;3.59;69.18;101333.09;680606;29;867;-78
2022/12/06 01:10:11;;;;;;;24.35;16.02;;;;;;;3.61;68.83;101341.84;675443;29;1006;-78
2022/12/06 01:10:31;;;;;;;25.60;15.93;;;;;;;3.63;68.83;101346.31;677026;29;990;-79
2022/12/06 01:10:53;;;;;;;25.00;15.70;;;;;;;3.59;68.71;101333.09;675462;29;1418;-78
2022/12/06 01:11:15;;;;;;;27.45;16.38;;;;;;;3.59;68.87;101338.25;675410;29;995;-78
2022/12/06 01:11:36;;;;;;;26.73;16.48;;;;;;;3.63;69.04;101336.00;675201;29;1296;-78
2022/12/06 01:11:57;;;;;;;25.90;16.35;;;;;;;3.63;69.12;101341.16;672622;29;1150;-78
2022/12/06 01:12:17;;;;;;;24.83;16.00;;;;;;;3.62;68.93;101335.88;672765;29;1145;-78
2022/12/06 01:12:38;;;;;;;25.70;15.93;;;;;;;3.60;69.02;101334.91;675372;29;1034;-79
2022/12/06 01:12:59;;;;;;;26.85;16.50;;;;;;;3.64;68.91;101349.78;673396;29;1324;-78
2022/12/06 01:13:19;;;;;;;26.47;16.40;;;;;;;3.58;68.89;101324.47;676046;29;1208;-79
2022/12/06 01:13:41;;;;;;;25.27;16.05;;;;;;;3.63;69.22;101336.00;675567;29;1082;-79
2022/12/06 01:14:02;;;;;;;24.98;15.48;;;;;;;3.67;68.63;101342.22;675496;29;793;-79
2022/12/06 01:14:23;;;;;;;25.73;16.02;;;;;;;3.66;68.81;101343.03;672942;29;952;-78
2022/12/06 01:14:44;;;;;;;26.95;16.90;;;;;;;3.65;69.10;101337.00;672712;29;1007;-78
2022/12/06 01:15:05;;;;;;;26.43;17.17;;;;;;;3.66;68.99;101335.28;672855;29;1098;-78
2022/12/06 01:15:26;;;;;;;27.00;17.05;;;;;;;3.65;68.73;101333.50;672690;29;1120;-79
2022/12/06 01:15:47;;;;;;;26.40;16.53;;;;;;;3.66;68.63;101332.69;673450;29;947;-79
2022/12/06 01:16:13;;;;;;;26.50;16.43;;;;;;;3.70;68.83;101347.59;675895;29;1131;-77
2022/12/06 01:16:34;;;;;;;27.27;16.60;;;;;;;3.66;68.72;101335.28;678868;29;990;-78
2022/12/06 01:16:55;;;;;;;27.27;16.65;;;;;;;3.70;68.79;101342.44;681753;29;878;-78
2022/12/06 01:17:15;;;;;;;26.90;16.27;;;;;;;3.62;68.97;101329.03;680650;29;1110;-79
2022/12/06 01:17:36;;;;;;;25.20;16.20;;;;;;;3.66;68.48;101341.34;680553;29;991;-79
2022/12/06 01:17:57;;;;;;;26.75;16.48;;;;;;;3.68;68.54;101344.03;680780;29;780;-79
2022/12/06 01:18:21;;;;;;;27.60;17.20;;;;;;;3.69;68.63;101341.53;677953;29;1186;-78
2022/12/06 01:18:42;;;;;;;27.00;16.92;;;;;;;3.66;68.54;101336.19;678095;28;1299;-78
2022/12/06 01:19:05;;;;;;;26.02;16.76;;;;;;;3.70;68.62;101343.31;676264;29;1608;-78
2022/12/06 01:19:25;;;;;;;26.35;16.55;;;;;;;3.69;68.59;101338.09;675312;29;1223;-78
2022/12/06 01:19:48;;;;;;;27.85;16.52;;;;;;;3.73;68.38;101344.34;675302;29;1297;-79
2022/12/06 01:20:09;;;;;;;28.23;16.52;;;;;;;3.71;68.91;101339.06;675389;29;995;-79
2022/12/06 01:20:30;;;;;;;29.25;16.80;;;;;;;3.70;68.81;101345.03;675145;29;1263;-78
2022/12/06 01:20:50;;;;;;;30.27;17.90;;;;;;;3.74;68.73;101346.13;675419;29;804;-79
2022/12/06 01:21:17;;;;;;;29.20;17.80;;;;;;;3.73;68.58;101347.81;675324;29;1130;-79
2022/12/06 01:21:37;;;;;;;25.05;16.90;;;;;;;3.70;68.38;101334.72;672682;29;1062;-79
2022/12/06 01:21:58;;;;;;;23.75;16.63;;;;;;;3.70;68.68;101347.59;675454;29;839;-79
2022/12/06 01:22:19;;;;;;;25.10;16.50;;;;;;;3.73;68.55;101350.38;677553;29;1059;-78
2022/12/06 01:22:39;;;;;;;26.00;16.30;;;;;;;3.73;68.53;101347.81;677442;29;1162;-78
2022/12/06 01:23:00;;;;;;;25.37;15.57;;;;;;;3.73;68.31;101340.06;678049;29;863;-78
2022/12/06 01:23:21;;;;;;;23.30;15.33;;;;;;;3.73;68.68;101342.63;677961;29;1089;-79
2022/12/06 01:23:43;;;;;;;23.65;15.68;;;;;;;3.74;68.85;101347.00;677891;29;1376;-78
2022/12/06 01:24:04;;;;;;;25.05;16.10;;;;;;;3.68;68.34;101334.59;680673;28;1147;-78
2022/12/06 01:24:24;;;;;;;25.23;16.10;;;;;;;3.69;68.67;101344.13;680448;29;1361;-78
2022/12/06 01:24:46;;;;;;;25.70;16.27;;;;;;;3.70;68.76;101345.03;677913;29;1216;-78
2022/12/06 01:25:07;;;;;;;26.10;16.50;;;;;;;3.68;68.55;101339.75;675222;29;1050;-78
2022/12/06 01:25:29;;;;;;;27.05;17.05;;;;;;;3.69;68.43;101351.00;673307;29;1301;-78
2022/12/06 01:25:51;;;;;;;26.80;16.95;;;;;;;3.74;68.41;101344.41;675327;29;1218;-78
2022/12/06 01:26:29;;;;;;;25.30;16.45;;;;;;;3.72;68.45;101351.19;675211;29;1164;-79
2022/12/06 01:26:49;;;;;;;25.58;16.75;;;;;;;3.73;68.46;101350.38;675081;29;942;-78
2022/12/06 01:27:10;;;;;;;25.70;16.70;;;;;;;3.68;68.34;101344.91;672383;29;1151;-78
2022/12/06 01:27:30;;;;;;;24.10;16.00;;;;;;;3.72;68.68;101350.31;672772;29;1002;-79
2022/12/06 01:27:51;;;;;;;24.30;15.70;;;;;;;3.62;68.76;101335.88;678115;29;738;-79
2022/12/06 01:28:12;;;;;;;25.25;16.67;;;;;;;3.66;68.93;101346.50;675300;29;1111;-79
2022/12/06 01:28:33;;;;;;;24.97;16.67;;;;;;;3.70;68.90;101352.78;675426;29;1126;-79
2022/12/06 01:28:54;;;;;;;25.80;17.08;;;;;;;3.73;68.85;101357.25;678382;29;792;-79
2022/12/06 01:29:14;;;;;;;26.23;16.67;;;;;;;3.63;68.62;101342.84;680529;29;1088;-79
2022/12/06 01:29:35;;;;;;;27.20;16.70;;;;;;;3.67;69.09;101352.56;677596;29;1911;-79
2022/12/06 01:29:55;;;;;;;25.23;16.30;;;;;;;3.66;68.77;101350.78;675766;29;892;-78
2022/12/06 01:30:16;;;;;;;24.70;16.63;;;;;;;3.67;69.01;101349.97;675666;29;1191;-78
2022/12/06 01:30:38;;;;;;;24.00;16.83;;;;;;;3.69;69.10;101345.81;675202;29;995;-78
2022/12/06 01:31:04;;;;;;;23.95;16.67;;;;;;;3.68;68.70;101359.53;675346;29;887;-78
2022/12/06 01:31:26;;;;;;;26.20;16.80;;;;;;;3.64;68.54;101345.53;676527;29;1023;-79
2022/12/06 01:31:47;;;;;;;26.70;16.45;;;;;;;3.66;68.79;101345.59;676639;29;1145;-78
2022/12/06 01:32:07;;;;;;;26.83;17.20;;;;;;;3.70;68.82;101352.78;677908;29;1273;-79
2022/12/06 01:32:29;;;;;;;25.45;16.88;;;;;;;3.74;68.88;101359.91;677751;29;994;-79
2022/12/06 01:32:49;;;;;;;26.35;17.25;;;;;;;3.75;68.70;101355.66;675317;29;1465;-79
2022/12/06 01:33:10;;;;;;;26.97;17.00;;;;;;;3.68;68.58;101349.22;675311;29;1059;-79
2022/12/06 01:33:30;;;;;;;27.10;17.27;;;;;;;3.65;68.90;101344.72;672629;29;1062;-78
2022/12/06 01:33:51;;;;;;;28.30;16.70;;;;;;;3.70;68.66;101345.91;672844;29;777;-78
2022/12/06 01:34:16;;;;;;;28.10;16.33;;;;;;;3.72;68.59;101356.34;672649;29;1135;-78
2022/12/06 01:34:37;;;;;;;28.27;16.10;;;;;;;3.65;68.53;101343.81;673280;29;993;-79
2022/12/06 01:34:58;;;;;;;25.55;16.20;;;;;;;3.63;68.65;101340.25;676214;29;1215;-78
2022/12/06 01:35:18;;;;;;;25.60;16.90;;;;;;;3.71;69.03;101357.13;678726;29;1046;-78
2022/12/06 01:35:40;;;;;;;24.73;16.73;;;;;;;3.72;68.80;101350.31;680514;29;1193;-79
2022/12/06 01:36:02;;;;;;;25.80;16.77;;;;;;;3.68;68.68;101351.78;676301;29;1357;-79
2022/12/06 01:36:24;;;;;;;26.55;16.95;;;;;;;3.68;68.90;101354.38;675268;29;836;-79
2022/12/06 01:36:45;;;;;;;26.15;17.05;;;;;;;3.65;69.16;101351.56;675857;29;931;-79
2022/12/06 01:37:05;;;;;;;24.77;16.95;;;;;;;3.64;68.70;101349.78;677943;29;1082;-79
2022/12/06 01:37:26;;;;;;;24.33;16.53;;;;;;;3.61;68.87;101345.31;675305;29;1162;-79
2022/12/06 01:37:46;;;;;;;26.17;16.83;;;;;;;3.62;68.99;101351.38;678018;29;858;-79
2022/12/06 01:38:08;;;;;;;26.83;16.95;;;;;;;3.63;68.69;101340.25;675077;29;1261;-78
2022/12/06 01:38:29;;;;;;;25.98;17.33;;;;;;;3.69;68.98;101345.81;675236;29;1047;-79
2022/12/06 01:38:55;;;;;;;24.55;16.75;;;;;;;3.69;68.58;101351.00;675263;29;909;-78
2022/12/06 01:39:16;;;;;;;27.67;16.67;;;;;;;3.66;68.59;101349.09;675335;29;1097;-78
2022/12/06 01:39:37;;;;;;;27.02;16.48;;;;;;;3.65;68.74;101342.16;672172;29;1288;-79
2022/12/06 01:39:57;;;;;;;27.17;16.90;;;;;;;3.64;68.89;101336.88;674066;29;823;-79
2022/12/06 01:40:18;;;;;;;25.13;16.90;;;;;;;3.66;68.92;101350.78;675321;29;1110;-79
2022/12/06 01:40:41;;;;;;;27.33;17.45;;;;;;;3.68;69.00;101354.38;672316;29;1146;-79
2022/12/06 01:41:02;;;;;;;27.58;17.60;;;;;;;3.70;68.50;101352.78;673390;29;1026;-79
2022/12/06 01:41:25;;;;;;;27.67;17.10;;;;;;;3.69;68.41;101345.81;674101;29;1386;-79
2022/12/06 01:41:46;;;;;;;25.60;16.50;;;;;;;3.74;68.75;101359.91;677895;29;1074;-79
2022/12/06 01:42:10;;;;;;;26.67;16.65;;;;;;;3.69;68.68;101351.00;672745;29;1099;-79